sensor_id;sensor_type;location;lat;lon;timestamp;temperature;humidity
64652;HTU21D;51062;45.120;37.660;2023-04-21T00:00:43;11.17;69.33
64652;HTU21D;51062;45.120;37.660;2023-04-21T00:03:09;11.15;69.33
64652;HTU21D;51062;45.120;37.660;2023-04-21T00:05:35;11.12;69.33
64652;HTU21D;51062;45.120;37.660;2023-04-21T00:08:03;11.12;69.36
64652;HTU21D;51062;45.120;37.660;2023-04-21T00:10:29;11.12;69.38
64652;HTU21D;51062;45.120;37.660;2023-04-21T00:12:55;11.12;69.34
64652;HTU21D;51062;45.120;37.660;2023-04-21T00:15:21;11.11;69.33
64652;HTU21D;51062;45.120;37.660;2023-04-21T00:17:47;11.13;69.29
64652;HTU21D;51062;45.120;37.660;2023-04-21T00:20:13;11.12;69.29
64652;HTU21D;51062;45.120;37.660;2023-04-21T00:22:40;11.11;69.31
64652;HTU21D;51062;45.120;37.660;2023-04-21T00:25:06;11.09;69.35
64652;HTU21D;51062;45.120;37.660;2023-04-21T00:27:32;11.09;69.36
64652;HTU21D;51062;45.120;37.660;2023-04-21T00:29:58;11.05;69.39
64652;HTU21D;51062;45.120;37.660;2023-04-21T00:32:24;11.03;69.49
64652;HTU21D;51062;45.120;37.660;2023-04-21T00:34:51;11.04;69.55
64652;HTU21D;51062;45.120;37.660;2023-04-21T00:37:17;11.05;69.58
64652;HTU21D;51062;45.120;37.660;2023-04-21T00:39:43;11.05;69.58
64652;HTU21D;51062;45.120;37.660;2023-04-21T00:42:09;11.05;69.56
64652;HTU21D;51062;45.120;37.660;2023-04-21T00:44:35;11.07;69.62
64652;HTU21D;51062;45.120;37.660;2023-04-21T00:47:02;11.09;69.65
64652;HTU21D;51062;45.120;37.660;2023-04-21T00:49:28;11.16;69.65
64652;HTU21D;51062;45.120;37.660;2023-04-21T00:51:55;11.18;69.60
64652;HTU21D;51062;45.120;37.660;2023-04-21T00:54:23;11.23;69.58
64652;HTU21D;51062;45.120;37.660;2023-04-21T00:56:50;11.25;69.55
64652;HTU21D;51062;45.120;37.660;2023-04-21T00:59:16;11.27;69.58
64652;HTU21D;51062;45.120;37.660;2023-04-21T01:01:42;11.31;69.61
64652;HTU21D;51062;45.120;37.660;2023-04-21T01:04:09;11.33;69.57
64652;HTU21D;51062;45.120;37.660;2023-04-21T01:06:36;11.32;69.58
64652;HTU21D;51062;45.120;37.660;2023-04-21T01:09:02;11.34;69.61
64652;HTU21D;51062;45.120;37.660;2023-04-21T01:11:31;11.36;69.63
64652;HTU21D;51062;45.120;37.660;2023-04-21T01:14:00;11.36;69.61
64652;HTU21D;51062;45.120;37.660;2023-04-21T01:16:26;11.39;69.63
64652;HTU21D;51062;45.120;37.660;2023-04-21T01:18:53;11.41;69.66
64652;HTU21D;51062;45.120;37.660;2023-04-21T01:21:19;11.44;69.71
64652;HTU21D;51062;45.120;37.660;2023-04-21T01:23:46;11.48;69.74
64652;HTU21D;51062;45.120;37.660;2023-04-21T01:26:12;11.56;69.74
64652;HTU21D;51062;45.120;37.660;2023-04-21T01:28:38;11.61;69.71
64652;HTU21D;51062;45.120;37.660;2023-04-21T01:31:05;11.67;69.68
64652;HTU21D;51062;45.120;37.660;2023-04-21T01:33:31;11.69;69.68
64652;HTU21D;51062;45.120;37.660;2023-04-21T01:35:58;11.72;69.67
64652;HTU21D;51062;45.120;37.660;2023-04-21T01:38:26;11.74;69.70
64652;HTU21D;51062;45.120;37.660;2023-04-21T01:40:54;11.76;69.73
64652;HTU21D;51062;45.120;37.660;2023-04-21T01:43:23;11.78;69.75
64652;HTU21D;51062;45.120;37.660;2023-04-21T01:45:50;11.78;69.78
64652;HTU21D;51062;45.120;37.660;2023-04-21T01:48:16;11.84;69.77
64652;HTU21D;51062;45.120;37.660;2023-04-21T01:50:42;11.86;69.72
64652;HTU21D;51062;45.120;37.660;2023-04-21T01:53:09;11.88;69.71
64652;HTU21D;51062;45.120;37.660;2023-04-21T01:55:36;11.91;69.71
64652;HTU21D;51062;45.120;37.660;2023-04-21T01:58:02;11.93;69.74
64652;HTU21D;51062;45.120;37.660;2023-04-21T02:00:29;11.94;69.74
64652;HTU21D;51062;45.120;37.660;2023-04-21T02:02:56;11.96;69.74
64652;HTU21D;51062;45.120;37.660;2023-04-21T02:05:22;11.97;69.77
64652;HTU21D;51062;45.120;37.660;2023-04-21T02:07:48;11.97;69.79
64652;HTU21D;51062;45.120;37.660;2023-04-21T02:10:14;11.99;69.79
64652;HTU21D;51062;45.120;37.660;2023-04-21T02:12:43;12.01;69.80
64652;HTU21D;51062;45.120;37.660;2023-04-21T02:15:09;12.03;69.77
64652;HTU21D;51062;45.120;37.660;2023-04-21T02:17:36;12.04;69.75
64652;HTU21D;51062;45.120;37.660;2023-04-21T02:20:02;12.05;69.74
64652;HTU21D;51062;45.120;37.660;2023-04-21T02:22:29;12.06;69.73
64652;HTU21D;51062;45.120;37.660;2023-04-21T02:24:57;12.08;69.74
64652;HTU21D;51062;45.120;37.660;2023-04-21T02:27:23;12.12;69.69
64652;HTU21D;51062;45.120;37.660;2023-04-21T02:29:50;12.13;69.67
64652;HTU21D;51062;45.120;37.660;2023-04-21T02:32:16;12.15;69.65
64652;HTU21D;51062;45.120;37.660;2023-04-21T02:34:43;12.15;69.65
64652;HTU21D;51062;45.120;37.660;2023-04-21T02:37:09;12.15;69.68
64652;HTU21D;51062;45.120;37.660;2023-04-21T02:39:36;12.16;69.71
64652;HTU21D;51062;45.120;37.660;2023-04-21T02:42:04;12.16;69.69
64652;HTU21D;51062;45.120;37.660;2023-04-21T02:44:30;12.16;69.71
64652;HTU21D;51062;45.120;37.660;2023-04-21T02:46:56;12.18;69.71
64652;HTU21D;51062;45.120;37.660;2023-04-21T02:49:22;12.18;69.69
64652;HTU21D;51062;45.120;37.660;2023-04-21T02:51:49;12.18;69.72
64652;HTU21D;51062;45.120;37.660;2023-04-21T02:54:15;12.17;69.74
64652;HTU21D;51062;45.120;37.660;2023-04-21T02:56:41;12.17;69.78
64652;HTU21D;51062;45.120;37.660;2023-04-21T02:59:07;12.14;69.81
64652;HTU21D;51062;45.120;37.660;2023-04-21T03:01:33;12.14;69.86
64652;HTU21D;51062;45.120;37.660;2023-04-21T03:03:59;12.12;69.88
64652;HTU21D;51062;45.120;37.660;2023-04-21T03:06:26;12.12;69.95
64652;HTU21D;51062;45.120;37.660;2023-04-21T03:08:52;12.11;69.98
64652;HTU21D;51062;45.120;37.660;2023-04-21T03:11:19;12.11;70.03
64652;HTU21D;51062;45.120;37.660;2023-04-21T03:13:44;12.11;70.05
64652;HTU21D;51062;45.120;37.660;2023-04-21T03:16:11;12.10;70.10
64652;HTU21D;51062;45.120;37.660;2023-04-21T03:18:37;12.08;70.17
64652;HTU21D;51062;45.120;37.660;2023-04-21T03:21:04;12.10;70.20
64652;HTU21D;51062;45.120;37.660;2023-04-21T03:23:30;12.10;70.23
64652;HTU21D;51062;45.120;37.660;2023-04-21T03:25:56;12.12;70.26
64652;HTU21D;51062;45.120;37.660;2023-04-21T03:28:22;12.15;70.24
64652;HTU21D;51062;45.120;37.660;2023-04-21T03:30:48;12.18;70.22
64652;HTU21D;51062;45.120;37.660;2023-04-21T03:33:14;12.21;70.20
64652;HTU21D;51062;45.120;37.660;2023-04-21T03:35:40;12.21;70.16
64652;HTU21D;51062;45.120;37.660;2023-04-21T03:38:07;12.23;70.16
64652;HTU21D;51062;45.120;37.660;2023-04-21T03:40:34;12.26;70.16
64652;HTU21D;51062;45.120;37.660;2023-04-21T03:43:01;12.28;70.17
64652;HTU21D;51062;45.120;37.660;2023-04-21T03:45:28;12.27;70.24
64652;HTU21D;51062;45.120;37.660;2023-04-21T03:47:54;12.28;70.29
64652;HTU21D;51062;45.120;37.660;2023-04-21T03:50:20;12.30;70.32
64652;HTU21D;51062;45.120;37.660;2023-04-21T03:52:46;12.35;70.30
64652;HTU21D;51062;45.120;37.660;2023-04-21T03:55:12;12.41;70.32
64652;HTU21D;51062;45.120;37.660;2023-04-21T03:57:39;12.47;70.36
64652;HTU21D;51062;45.120;37.660;2023-04-21T04:00:07;12.58;70.32
64652;HTU21D;51062;45.120;37.660;2023-04-21T04:02:40;12.66;70.28
64652;HTU21D;51062;45.120;37.660;2023-04-21T04:05:07;12.73;70.29
64652;HTU21D;51062;45.120;37.660;2023-04-21T04:07:33;12.79;70.26
64652;HTU21D;51062;45.120;37.660;2023-04-21T04:09:59;12.86;70.25
64652;HTU21D;51062;45.120;37.660;2023-04-21T04:12:25;12.94;70.24
64652;HTU21D;51062;45.120;37.660;2023-04-21T04:14:51;13.03;70.16
64652;HTU21D;51062;45.120;37.660;2023-04-21T04:17:17;13.08;70.10
64652;HTU21D;51062;45.120;37.660;2023-04-21T04:19:44;13.14;70.03
64652;HTU21D;51062;45.120;37.660;2023-04-21T04:22:09;13.15;69.94
64652;HTU21D;51062;45.120;37.660;2023-04-21T04:24:36;13.15;69.94
64652;HTU21D;51062;45.120;37.660;2023-04-21T04:27:02;13.11;69.97
64652;HTU21D;51062;45.120;37.660;2023-04-21T04:29:28;13.09;70.08
64652;HTU21D;51062;45.120;37.660;2023-04-21T04:31:54;13.08;70.16
64652;HTU21D;51062;45.120;37.660;2023-04-21T04:34:22;13.10;70.19
64652;HTU21D;51062;45.120;37.660;2023-04-21T04:36:49;13.12;70.18
64652;HTU21D;51062;45.120;37.660;2023-04-21T04:39:15;13.16;70.16
64652;HTU21D;51062;45.120;37.660;2023-04-21T04:41:42;13.20;70.13
64652;HTU21D;51062;45.120;37.660;2023-04-21T04:44:08;13.23;70.11
64652;HTU21D;51062;45.120;37.660;2023-04-21T04:46:35;13.26;70.08
64652;HTU21D;51062;45.120;37.660;2023-04-21T04:49:02;13.29;70.08
64652;HTU21D;51062;45.120;37.660;2023-04-21T04:51:28;13.30;70.11
64652;HTU21D;51062;45.120;37.660;2023-04-21T04:53:54;13.34;70.17
64652;HTU21D;51062;45.120;37.660;2023-04-21T04:56:21;13.38;70.18
64652;HTU21D;51062;45.120;37.660;2023-04-21T04:58:48;13.41;70.17
64652;HTU21D;51062;45.120;37.660;2023-04-21T05:01:15;13.44;70.16
64652;HTU21D;51062;45.120;37.660;2023-04-21T05:03:43;13.45;70.13
64652;HTU21D;51062;45.120;37.660;2023-04-21T05:06:09;13.46;70.16
64652;HTU21D;51062;45.120;37.660;2023-04-21T05:08:35;13.46;70.14
64652;HTU21D;51062;45.120;37.660;2023-04-21T05:11:02;13.45;70.16
64652;HTU21D;51062;45.120;37.660;2023-04-21T05:13:28;13.47;70.21
64652;HTU21D;51062;45.120;37.660;2023-04-21T05:15:57;13.51;70.19
64652;HTU21D;51062;45.120;37.660;2023-04-21T05:18:24;13.52;70.13
64652;HTU21D;51062;45.120;37.660;2023-04-21T05:20:50;13.53;70.11
64652;HTU21D;51062;45.120;37.660;2023-04-21T05:23:16;13.55;70.22
64652;HTU21D;51062;45.120;37.660;2023-04-21T05:25:43;13.60;70.25
64652;HTU21D;51062;45.120;37.660;2023-04-21T05:28:09;13.66;70.15
64652;HTU21D;51062;45.120;37.660;2023-04-21T05:30:35;13.68;70.14
64652;HTU21D;51062;45.120;37.660;2023-04-21T05:33:01;13.75;70.07
64652;HTU21D;51062;45.120;37.660;2023-04-21T05:35:31;13.81;70.03
64652;HTU21D;51062;45.120;37.660;2023-04-21T05:37:57;13.84;70.00
64652;HTU21D;51062;45.120;37.660;2023-04-21T05:40:23;13.88;69.96
64652;HTU21D;51062;45.120;37.660;2023-04-21T05:42:49;13.90;69.97
64652;HTU21D;51062;45.120;37.660;2023-04-21T05:45:15;13.94;69.93
64652;HTU21D;51062;45.120;37.660;2023-04-21T05:47:41;13.97;69.93
64652;HTU21D;51062;45.120;37.660;2023-04-21T05:50:07;13.98;69.84
64652;HTU21D;51062;45.120;37.660;2023-04-21T05:52:34;13.98;69.87
64652;HTU21D;51062;45.120;37.660;2023-04-21T05:55:02;13.99;69.97
64652;HTU21D;51062;45.120;37.660;2023-04-21T05:57:28;14.06;69.95
64652;HTU21D;51062;45.120;37.660;2023-04-21T05:59:54;14.15;69.95
64652;HTU21D;51062;45.120;37.660;2023-04-21T06:02:21;14.32;69.89
64652;HTU21D;51062;45.120;37.660;2023-04-21T06:04:47;14.50;69.79
64652;HTU21D;51062;45.120;37.660;2023-04-21T06:07:13;14.67;69.71
64652;HTU21D;51062;45.120;37.660;2023-04-21T06:09:39;14.86;69.71
64652;HTU21D;51062;45.120;37.660;2023-04-21T06:12:06;15.36;70.21
64652;HTU21D;51062;45.120;37.660;2023-04-21T06:14:32;15.80;69.69
64652;HTU21D;51062;45.120;37.660;2023-04-21T06:16:58;16.07;69.32
64652;HTU21D;51062;45.120;37.660;2023-04-21T06:19:24;16.14;69.04
64652;HTU21D;51062;45.120;37.660;2023-04-21T06:21:50;16.05;68.98
64652;HTU21D;51062;45.120;37.660;2023-04-21T06:24:17;15.95;68.99
64652;HTU21D;51062;45.120;37.660;2023-04-21T06:26:50;15.81;69.12
64652;HTU21D;51062;45.120;37.660;2023-04-21T06:29:17;15.73;69.14
64652;HTU21D;51062;45.120;37.660;2023-04-21T06:31:44;15.69;69.19
64652;HTU21D;51062;45.120;37.660;2023-04-21T06:34:10;15.61;69.24
64652;HTU21D;51062;45.120;37.660;2023-04-21T06:36:36;15.58;69.29
64652;HTU21D;51062;45.120;37.660;2023-04-21T06:39:02;15.54;69.20
64652;HTU21D;51062;45.120;37.660;2023-04-21T06:41:29;15.48;69.19
64652;HTU21D;51062;45.120;37.660;2023-04-21T06:43:55;15.46;69.13
64652;HTU21D;51062;45.120;37.660;2023-04-21T06:46:21;15.45;69.10
64652;HTU21D;51062;45.120;37.660;2023-04-21T06:48:47;15.44;69.03
64652;HTU21D;51062;45.120;37.660;2023-04-21T06:51:13;15.45;69.04
64652;HTU21D;51062;45.120;37.660;2023-04-21T06:53:40;15.53;68.99
64652;HTU21D;51062;45.120;37.660;2023-04-21T06:56:06;15.68;68.95
64652;HTU21D;51062;45.120;37.660;2023-04-21T06:58:32;15.87;68.81
64652;HTU21D;51062;45.120;37.660;2023-04-21T07:00:58;16.01;68.57
64652;HTU21D;51062;45.120;37.660;2023-04-21T07:03:24;16.10;68.50
64652;HTU21D;51062;45.120;37.660;2023-04-21T07:05:50;16.18;68.50
64652;HTU21D;51062;45.120;37.660;2023-04-21T07:08:16;16.27;68.55
64652;HTU21D;51062;45.120;37.660;2023-04-21T07:10:42;16.39;68.47
64652;HTU21D;51062;45.120;37.660;2023-04-21T07:13:08;16.54;68.44
64652;HTU21D;51062;45.120;37.660;2023-04-21T07:15:35;16.96;69.03
64652;HTU21D;51062;45.120;37.660;2023-04-21T07:18:01;17.48;68.59
64652;HTU21D;51062;45.120;37.660;2023-04-21T07:20:27;17.85;68.13
64652;HTU21D;51062;45.120;37.660;2023-04-21T07:22:53;18.21;68.20
64652;HTU21D;51062;45.120;37.660;2023-04-21T07:25:19;18.61;67.46
64652;HTU21D;51062;45.120;37.660;2023-04-21T07:27:45;18.68;67.01
64652;HTU21D;51062;45.120;37.660;2023-04-21T07:30:11;18.83;67.32
64652;HTU21D;51062;45.120;37.660;2023-04-21T07:32:37;19.06;66.94
64652;HTU21D;51062;45.120;37.660;2023-04-21T07:35:05;19.48;66.88
64652;HTU21D;51062;45.120;37.660;2023-04-21T07:37:31;19.94;66.21
64652;HTU21D;51062;45.120;37.660;2023-04-21T07:39:57;20.10;65.38
64652;HTU21D;51062;45.120;37.660;2023-04-21T07:42:23;19.79;65.03
64652;HTU21D;51062;45.120;37.660;2023-04-21T07:44:51;19.44;65.33
64652;HTU21D;51062;45.120;37.660;2023-04-21T07:47:18;19.20;65.48
64652;HTU21D;51062;45.120;37.660;2023-04-21T07:49:44;18.94;65.58
64652;HTU21D;51062;45.120;37.660;2023-04-21T07:52:10;18.69;65.69
64652;HTU21D;51062;45.120;37.660;2023-04-21T07:54:36;18.43;65.93
64652;HTU21D;51062;45.120;37.660;2023-04-21T07:57:02;18.27;66.09
64652;HTU21D;51062;45.120;37.660;2023-04-21T07:59:28;18.20;66.19
64652;HTU21D;51062;45.120;37.660;2023-04-21T08:01:54;18.09;66.11
64652;HTU21D;51062;45.120;37.660;2023-04-21T08:04:21;17.91;66.09
64652;HTU21D;51062;45.120;37.660;2023-04-21T08:06:47;17.90;66.43
64652;HTU21D;51062;45.120;37.660;2023-04-21T08:09:13;18.39;66.08
64652;HTU21D;51062;45.120;37.660;2023-04-21T08:11:39;18.82;65.17
64652;HTU21D;51062;45.120;37.660;2023-04-21T08:14:05;18.97;64.57
64652;HTU21D;51062;45.120;37.660;2023-04-21T08:16:34;18.85;64.27
64652;HTU21D;51062;45.120;37.660;2023-04-21T08:19:00;18.69;64.40
64652;HTU21D;51062;45.120;37.660;2023-04-21T08:21:26;18.53;64.55
64652;HTU21D;51062;45.120;37.660;2023-04-21T08:23:52;18.46;64.95
64652;HTU21D;51062;45.120;37.660;2023-04-21T08:26:22;18.51;64.83
64652;HTU21D;51062;45.120;37.660;2023-04-21T08:28:48;18.48;64.62
64652;HTU21D;51062;45.120;37.660;2023-04-21T08:31:16;18.39;64.63
64652;HTU21D;51062;45.120;37.660;2023-04-21T08:33:43;18.26;64.65
64652;HTU21D;51062;45.120;37.660;2023-04-21T08:36:09;18.23;64.84
64652;HTU21D;51062;45.120;37.660;2023-04-21T08:38:37;18.28;64.93
64652;HTU21D;51062;45.120;37.660;2023-04-21T08:41:03;18.37;64.86
64652;HTU21D;51062;45.120;37.660;2023-04-21T08:43:30;18.39;64.69
64652;HTU21D;51062;45.120;37.660;2023-04-21T08:45:56;18.34;64.50
64652;HTU21D;51062;45.120;37.660;2023-04-21T08:48:25;18.14;64.42
64652;HTU21D;51062;45.120;37.660;2023-04-21T08:50:52;17.93;64.56
64652;HTU21D;51062;45.120;37.660;2023-04-21T08:53:19;17.76;64.75
64652;HTU21D;51062;45.120;37.660;2023-04-21T08:55:46;17.74;65.00
64652;HTU21D;51062;45.120;37.660;2023-04-21T08:58:16;17.90;64.91
64652;HTU21D;51062;45.120;37.660;2023-04-21T09:00:42;17.89;64.59
64652;HTU21D;51062;45.120;37.660;2023-04-21T09:03:08;17.70;64.59
64652;HTU21D;51062;45.120;37.660;2023-04-21T09:05:35;17.47;64.60
64652;HTU21D;51062;45.120;37.660;2023-04-21T09:08:13;17.36;64.76
64652;HTU21D;51062;45.120;37.660;2023-04-21T09:10:48;17.36;64.80
64652;HTU21D;51062;45.120;37.660;2023-04-21T09:13:16;17.36;64.76
64652;HTU21D;51062;45.120;37.660;2023-04-21T09:15:48;17.29;64.66
64652;HTU21D;51062;45.120;37.660;2023-04-21T09:18:22;17.13;64.61
64652;HTU21D;51062;45.120;37.660;2023-04-21T09:20:51;16.92;64.63
64652;HTU21D;51062;45.120;37.660;2023-04-21T09:23:17;16.74;64.75
64652;HTU21D;51062;45.120;37.660;2023-04-21T09:25:45;16.60;64.98
64652;HTU21D;51062;45.120;37.660;2023-04-21T09:28:13;16.65;65.17
64652;HTU21D;51062;45.120;37.660;2023-04-21T09:30:41;16.88;65.10
64652;HTU21D;51062;45.120;37.660;2023-04-21T09:33:14;17.13;64.79
64652;HTU21D;51062;45.120;37.660;2023-04-21T09:35:41;17.30;64.53
64652;HTU21D;51062;45.120;37.660;2023-04-21T09:38:11;17.43;64.43
64652;HTU21D;51062;45.120;37.660;2023-04-21T09:40:38;17.55;64.30
64652;HTU21D;51062;45.120;37.660;2023-04-21T09:43:05;17.73;64.18
64652;HTU21D;51062;45.120;37.660;2023-04-21T09:45:33;17.88;64.01
64652;HTU21D;51062;45.120;37.660;2023-04-21T09:47:59;17.99;63.85
64652;HTU21D;51062;45.120;37.660;2023-04-21T09:50:29;17.98;63.69
64652;HTU21D;51062;45.120;37.660;2023-04-21T09:52:56;17.87;63.65
64652;HTU21D;51062;45.120;37.660;2023-04-21T09:55:26;17.74;63.71
64652;HTU21D;51062;45.120;37.660;2023-04-21T09:58:01;17.66;63.89
64652;HTU21D;51062;45.120;37.660;2023-04-21T10:00:30;17.67;63.85
64652;HTU21D;51062;45.120;37.660;2023-04-21T10:02:57;17.58;63.76
64652;HTU21D;51062;45.120;37.660;2023-04-21T10:05:23;17.48;63.80
64652;HTU21D;51062;45.120;37.660;2023-04-21T10:07:49;17.43;63.82
64652;HTU21D;51062;45.120;37.660;2023-04-21T10:10:28;17.49;63.84
64652;HTU21D;51062;45.120;37.660;2023-04-21T10:12:58;17.62;63.79
64652;HTU21D;51062;45.120;37.660;2023-04-21T10:15:36;17.78;63.69
64652;HTU21D;51062;45.120;37.660;2023-04-21T10:20:58;17.99;63.34
64652;HTU21D;51062;45.120;37.660;2023-04-21T10:23:31;17.92;63.20
64652;HTU21D;51062;45.120;37.660;2023-04-21T10:28:51;18.11;63.24
64652;HTU21D;51062;45.120;37.660;2023-04-21T10:31:35;18.17;63.16
64652;HTU21D;51062;45.120;37.660;2023-04-21T10:36:49;18.44;63.24
64652;HTU21D;51062;45.120;37.660;2023-04-21T10:39:30;18.57;62.85
64652;HTU21D;51062;45.120;37.660;2023-04-21T10:44:42;18.56;62.89
64652;HTU21D;51062;45.120;37.660;2023-04-21T10:47:08;18.55;62.74
64652;HTU21D;51062;45.120;37.660;2023-04-21T10:49:38;18.44;62.65
64652;HTU21D;51062;45.120;37.660;2023-04-21T10:52:08;18.20;62.69
64652;HTU21D;51062;45.120;37.660;2023-04-21T10:55:03;17.89;62.84
64652;HTU21D;51062;45.120;37.660;2023-04-21T10:57:33;17.58;63.03
64652;HTU21D;51062;45.120;37.660;2023-04-21T11:00:00;17.37;63.24
64652;HTU21D;51062;45.120;37.660;2023-04-21T11:02:26;17.25;63.41
64652;HTU21D;51062;45.120;37.660;2023-04-21T11:04:53;17.20;63.50
64652;HTU21D;51062;45.120;37.660;2023-04-21T11:07:21;17.32;63.56
64652;HTU21D;51062;45.120;37.660;2023-04-21T11:10:02;17.51;63.38
64652;HTU21D;51062;45.120;37.660;2023-04-21T11:12:35;17.64;63.11
64652;HTU21D;51062;45.120;37.660;2023-04-21T11:15:03;17.69;62.96
64652;HTU21D;51062;45.120;37.660;2023-04-21T11:17:32;17.78;62.94
64652;HTU21D;51062;45.120;37.660;2023-04-21T11:19:59;17.80;62.79
64652;HTU21D;51062;45.120;37.660;2023-04-21T11:22:26;17.76;62.86
64652;HTU21D;51062;45.120;37.660;2023-04-21T11:24:54;17.78;62.99
64652;HTU21D;51062;45.120;37.660;2023-04-21T11:27:21;17.84;63.01
64652;HTU21D;51062;45.120;37.660;2023-04-21T11:29:48;17.84;62.91
64652;HTU21D;51062;45.120;37.660;2023-04-21T11:32:15;17.76;62.93
64652;HTU21D;51062;45.120;37.660;2023-04-21T11:34:42;17.62;62.93
64652;HTU21D;51062;45.120;37.660;2023-04-21T11:37:13;17.41;62.93
64652;HTU21D;51062;45.120;37.660;2023-04-21T11:39:40;17.22;63.10
64652;HTU21D;51062;45.120;37.660;2023-04-21T11:42:06;17.08;63.20
64652;HTU21D;51062;45.120;37.660;2023-04-21T11:44:41;16.99;63.25
64652;HTU21D;51062;45.120;37.660;2023-04-21T11:47:17;16.88;63.33
64652;HTU21D;51062;45.120;37.660;2023-04-21T11:52:10;16.74;63.38
64652;HTU21D;51062;45.120;37.660;2023-04-21T11:54:38;16.69;63.40
64652;HTU21D;51062;45.120;37.660;2023-04-21T11:57:04;16.64;63.34
64652;HTU21D;51062;45.120;37.660;2023-04-21T11:59:31;16.58;63.37
64652;HTU21D;51062;45.120;37.660;2023-04-21T12:01:57;16.54;63.44
64652;HTU21D;51062;45.120;37.660;2023-04-21T12:04:24;16.51;63.45
64652;HTU21D;51062;45.120;37.660;2023-04-21T12:06:59;16.50;63.44
64652;HTU21D;51062;45.120;37.660;2023-04-21T12:09:26;16.49;63.40
64652;HTU21D;51062;45.120;37.660;2023-04-21T12:11:54;16.47;63.46
64652;HTU21D;51062;45.120;37.660;2023-04-21T12:14:23;16.46;63.45
64652;HTU21D;51062;45.120;37.660;2023-04-21T12:16:52;16.49;63.60
64652;HTU21D;51062;45.120;37.660;2023-04-21T12:19:34;16.57;63.50
64652;HTU21D;51062;45.120;37.660;2023-04-21T12:22:00;16.63;63.48
64652;HTU21D;51062;45.120;37.660;2023-04-21T12:24:27;16.71;63.37
64652;HTU21D;51062;45.120;37.660;2023-04-21T12:26:53;16.69;63.30
64652;HTU21D;51062;45.120;37.660;2023-04-21T12:29:19;16.63;63.24
64652;HTU21D;51062;45.120;37.660;2023-04-21T12:31:45;16.49;63.25
64652;HTU21D;51062;45.120;37.660;2023-04-21T12:34:11;16.34;63.48
64652;HTU21D;51062;45.120;37.660;2023-04-21T12:36:37;16.29;63.73
64652;HTU21D;51062;45.120;37.660;2023-04-21T12:39:03;16.29;63.82
64652;HTU21D;51062;45.120;37.660;2023-04-21T12:41:30;16.35;63.80
64652;HTU21D;51062;45.120;37.660;2023-04-21T12:43:56;16.41;63.73
64652;HTU21D;51062;45.120;37.660;2023-04-21T12:46:22;16.48;63.77
64652;HTU21D;51062;45.120;37.660;2023-04-21T12:48:49;16.52;63.65
64652;HTU21D;51062;45.120;37.660;2023-04-21T12:51:17;16.54;63.69
64652;HTU21D;51062;45.120;37.660;2023-04-21T12:53:43;16.56;63.66
64652;HTU21D;51062;45.120;37.660;2023-04-21T12:56:09;16.55;63.66
64652;HTU21D;51062;45.120;37.660;2023-04-21T12:58:36;16.49;63.66
64652;HTU21D;51062;45.120;37.660;2023-04-21T13:01:02;16.45;63.80
64652;HTU21D;51062;45.120;37.660;2023-04-21T13:03:28;16.50;63.87
64652;HTU21D;51062;45.120;37.660;2023-04-21T13:05:54;16.57;63.76
64652;HTU21D;51062;45.120;37.660;2023-04-21T13:08:20;16.51;63.66
64652;HTU21D;51062;45.120;37.660;2023-04-21T13:10:46;16.43;63.78
64652;HTU21D;51062;45.120;37.660;2023-04-21T13:13:12;16.36;63.82
64652;HTU21D;51062;45.120;37.660;2023-04-21T13:15:39;16.24;63.92
64652;HTU21D;51062;45.120;37.660;2023-04-21T13:18:05;16.13;64.03
64652;HTU21D;51062;45.120;37.660;2023-04-21T13:20:32;15.98;64.05
64652;HTU21D;51062;45.120;37.660;2023-04-21T13:22:58;15.76;64.10
64652;HTU21D;51062;45.120;37.660;2023-04-21T13:25:24;15.60;64.51
64652;HTU21D;51062;45.120;37.660;2023-04-21T13:27:50;15.54;64.76
64652;HTU21D;51062;45.120;37.660;2023-04-21T13:30:16;15.54;64.84
64652;HTU21D;51062;45.120;37.660;2023-04-21T13:32:42;15.53;64.88
64652;HTU21D;51062;45.120;37.660;2023-04-21T13:35:09;15.55;64.92
64652;HTU21D;51062;45.120;37.660;2023-04-21T13:37:39;15.58;64.97
64652;HTU21D;51062;45.120;37.660;2023-04-21T13:40:07;15.68;64.94
64652;HTU21D;51062;45.120;37.660;2023-04-21T13:42:34;15.77;64.81
64652;HTU21D;51062;45.120;37.660;2023-04-21T13:45:01;15.85;64.72
64652;HTU21D;51062;45.120;37.660;2023-04-21T13:47:32;15.87;64.69
64652;HTU21D;51062;45.120;37.660;2023-04-21T13:49:59;15.88;64.63
64652;HTU21D;51062;45.120;37.660;2023-04-21T13:52:26;15.86;64.66
64652;HTU21D;51062;45.120;37.660;2023-04-21T13:54:52;15.81;64.66
64652;HTU21D;51062;45.120;37.660;2023-04-21T13:57:19;15.74;64.65
64652;HTU21D;51062;45.120;37.660;2023-04-21T13:59:46;15.61;64.66
64652;HTU21D;51062;45.120;37.660;2023-04-21T14:02:12;15.49;64.81
64652;HTU21D;51062;45.120;37.660;2023-04-21T14:04:38;15.39;64.91
64652;HTU21D;51062;45.120;37.660;2023-04-21T14:07:05;15.26;64.98
64652;HTU21D;51062;45.120;37.660;2023-04-21T14:09:33;15.09;65.10
64652;HTU21D;51062;45.120;37.660;2023-04-21T14:11:59;14.96;65.23
64652;HTU21D;51062;45.120;37.660;2023-04-21T14:14:26;14.83;65.37
64652;HTU21D;51062;45.120;37.660;2023-04-21T14:16:52;14.73;65.46
64652;HTU21D;51062;45.120;37.660;2023-04-21T14:19:18;14.66;65.58
64652;HTU21D;51062;45.120;37.660;2023-04-21T14:21:44;14.62;65.62
64652;HTU21D;51062;45.120;37.660;2023-04-21T14:24:10;14.60;65.64
64652;HTU21D;51062;45.120;37.660;2023-04-21T14:26:37;14.60;65.66
64652;HTU21D;51062;45.120;37.660;2023-04-21T14:29:03;14.57;65.62
64652;HTU21D;51062;45.120;37.660;2023-04-21T14:31:29;14.56;65.62
64652;HTU21D;51062;45.120;37.660;2023-04-21T14:39:26;14.42;65.72
64652;HTU21D;51062;45.120;37.660;2023-04-21T14:41:52;14.37;65.80
64652;HTU21D;51062;45.120;37.660;2023-04-21T14:44:18;14.28;65.89
64652;HTU21D;51062;45.120;37.660;2023-04-21T14:46:44;14.23;66.04
64652;HTU21D;51062;45.120;37.660;2023-04-21T14:49:10;14.15;66.11
64652;HTU21D;51062;45.120;37.660;2023-04-21T14:51:37;14.07;66.20
64652;HTU21D;51062;45.120;37.660;2023-04-21T14:54:06;13.95;66.23
64652;HTU21D;51062;45.120;37.660;2023-04-21T14:56:33;13.82;66.39
64652;HTU21D;51062;45.120;37.660;2023-04-21T14:58:59;13.71;66.55
64652;HTU21D;51062;45.120;37.660;2023-04-21T15:01:26;13.65;66.64
64652;HTU21D;51062;45.120;37.660;2023-04-21T15:03:52;13.61;66.67
64652;HTU21D;51062;45.120;37.660;2023-04-21T15:06:18;13.56;66.68
64652;HTU21D;51062;45.120;37.660;2023-04-21T15:08:45;13.53;66.76
64652;HTU21D;51062;45.120;37.660;2023-04-21T15:11:11;13.51;66.81
64652;HTU21D;51062;45.120;37.660;2023-04-21T15:13:37;13.50;66.86
64652;HTU21D;51062;45.120;37.660;2023-04-21T15:16:04;13.47;66.88
64652;HTU21D;51062;45.120;37.660;2023-04-21T15:18:30;13.47;66.87
64652;HTU21D;51062;45.120;37.660;2023-04-21T15:20:56;13.43;66.89